Current | Forecast
Updated: 2:00 PM EEST on March 29, 2017
Observed at Mykolaiv, Ukraine
Temperature 19°C
Humidity 28%
Dew Point 0°C
Wind West at 14 km/h
Pressure 1018 hPa (Falling)
Conditions Clear
Visibility -
UV N/A
Clouds
Yesterday's Maximum 20°C
Yesterday's Minimum 1°C approx.
Yesterday's Heating Degree Days 14 approx.
Sunrise6:39 AM EEST
Sunset7:20 PM EEST
Moon Rise7:36 AM EEST
Moon Set9:02 PM EEST
Moon PhaseMoon Phase
Waxing Crescent
Raw METARMETAR UKON 291100Z 26004MPS 210V310 CAVOK 19/M00 Q1018 NOSIG


Monday
. High: 60° F.
Tuesday
. High: 69° F.
Wednesday
. High: 69° F.
Thursday
. High: 77° F.
Friday
. High: 66° F.
Saturday
. High: 68° F.
Sunday
. High: 69° F.
Monday
. High: 73° F.

Units: English | Metric

Find the Weather for any City, State or Zipcode, or Country:

U.S. State List | Severe Weather | Tropical Storms | Ski Conditions
United States | Canada | Central America | South America | Asia | Europe | Australia | Africa | Islands

Weather Underground

© Copyright 2017
The Weather Company, LLC